createdAt,value
2018-09-12T00:01:48.771Z,74.20
2018-09-12T00:04:17.570Z,73.70
2018-09-12T00:06:46.333Z,73.90
2018-09-12T00:09:15.137Z,74.60
2018-09-12T00:11:43.915Z,73.90
2018-09-12T00:14:12.715Z,74.00
2018-09-12T00:16:41.518Z,74.00
2018-09-12T00:19:10.307Z,74.00
2018-09-12T00:21:39.079Z,74.30
2018-09-12T00:24:07.960Z,74.20
2018-09-12T00:26:36.757Z,74.50
2018-09-12T00:29:05.669Z,74.30
2018-09-12T00:31:34.495Z,74.20
2018-09-12T00:34:03.242Z,75.00
2018-09-12T00:36:32.038Z,74.90
2018-09-12T00:39:00.818Z,74.90
2018-09-12T00:41:31.275Z,75.70
2018-09-12T00:44:00.100Z,74.60
2018-09-12T00:46:28.859Z,75.20
2018-09-12T00:48:57.699Z,75.30
2018-09-12T00:51:26.541Z,75.50
2018-09-12T00:53:55.278Z,75.70
2018-09-12T00:56:24.103Z,75.40
2018-09-12T00:58:52.962Z,75.30
2018-09-12T01:01:21.750Z,75.70
2018-09-12T01:03:50.888Z,75.30
2018-09-12T01:06:19.632Z,75.30
2018-09-12T01:08:48.371Z,75.70
2018-09-12T01:11:17.153Z,75.70
2018-09-12T01:13:45.972Z,76.10
2018-09-12T01:16:14.797Z,76.00
2018-09-12T01:18:43.654Z,76.00
2018-09-12T01:21:12.416Z,76.50
2018-09-12T01:23:41.173Z,76.00
2018-09-12T01:26:09.932Z,76.30
2018-09-12T01:28:38.728Z,75.70
2018-09-12T01:31:07.576Z,75.50
2018-09-12T01:33:36.319Z,75.40
2018-09-12T01:36:05.455Z,75.40
2018-09-12T01:38:34.217Z,75.90
2018-09-12T01:41:03.425Z,75.80
2018-09-12T01:43:32.375Z,76.80
2018-09-12T01:46:01.162Z,76.80
2018-09-12T01:48:29.944Z,76.50
2018-09-12T01:50:58.764Z,77.50
2018-09-12T01:53:27.531Z,77.70
2018-09-12T01:55:56.306Z,77.50
2018-09-12T01:58:25.139Z,77.30
2018-09-12T02:00:53.909Z,77.60
2018-09-12T02:03:22.720Z,77.30
2018-09-12T02:05:51.548Z,77.30
2018-09-12T02:08:20.341Z,77.40
2018-09-12T02:10:49.142Z,77.70
2018-09-12T02:13:17.933Z,77.70
2018-09-12T02:15:46.713Z,78.00
2018-09-12T02:18:15.513Z,78.20
2018-09-12T02:20:44.523Z,77.50
2018-09-12T02:23:13.323Z,77.70
2018-09-12T02:25:42.097Z,77.90
2018-09-12T02:28:10.889Z,77.90
2018-09-12T02:30:39.682Z,78.50
2018-09-12T02:33:08.506Z,78.90
2018-09-12T02:35:41.533Z,78.30
2018-09-12T02:38:10.312Z,78.00
2018-09-12T02:40:39.059Z,78.00
2018-09-12T02:43:07.821Z,77.70
2018-09-12T02:45:36.592Z,77.90
2018-09-12T02:48:06.057Z,78.10
2018-09-12T02:50:34.846Z,78.70
2018-09-12T02:53:03.745Z,79.00
2018-09-12T02:55:32.491Z,79.00
2018-09-12T02:58:01.270Z,79.00
2018-09-12T03:00:30.062Z,78.60
2018-09-12T03:02:58.877Z,78.70
2018-09-12T03:05:27.698Z,78.20
2018-09-12T03:07:56.678Z,78.50
2018-09-12T03:10:25.357Z,78.80
2018-09-12T03:12:54.096Z,78.70
2018-09-12T03:15:22.888Z,78.70
2018-09-12T03:17:51.674Z,79.00
2018-09-12T03:20:20.454Z,78.80
2018-09-12T03:22:49.233Z,78.60
2018-09-12T03:25:18.106Z,78.70
2018-09-12T03:27:46.842Z,78.80
2018-09-12T03:30:15.644Z,78.70
2018-09-12T03:32:44.489Z,78.70
2018-09-12T03:35:13.278Z,78.00
2018-09-12T03:37:42.093Z,78.20
2018-09-12T03:40:10.851Z,78.40
2018-09-12T03:42:39.592Z,78.10
2018-09-12T03:45:08.416Z,78.50
2018-09-12T03:47:37.201Z,79.10
2018-09-12T03:50:06.293Z,78.70
2018-09-12T03:52:35.125Z,77.70
2018-09-12T03:55:03.962Z,76.70
2018-09-12T03:57:32.771Z,77.10
2018-09-12T04:00:01.619Z,79.00
2018-09-12T04:02:30.406Z,80.20
2018-09-12T04:04:59.195Z,81.70
2018-09-12T04:07:29.936Z,82.10
2018-09-12T04:10:00.722Z,83.90
2018-09-12T04:12:29.887Z,84.00
2018-09-12T04:14:58.639Z,83.80
2018-09-12T04:17:33.088Z,84.30
2018-09-12T04:20:02.007Z,84.00
2018-09-12T04:22:31.247Z,84.50
2018-09-12T04:25:01.760Z,85.00
2018-09-12T04:27:30.606Z,84.40
2018-09-12T04:29:59.753Z,84.80
2018-09-12T04:32:28.533Z,84.50
2018-09-12T04:34:57.342Z,83.70
2018-09-12T04:37:26.112Z,85.70
2018-09-12T04:39:54.905Z,86.10
2018-09-12T04:42:23.709Z,86.00
2018-09-12T04:44:52.753Z,85.20
2018-09-12T04:47:21.517Z,86.80
2018-09-12T04:49:50.295Z,86.90
2018-09-12T04:52:19.100Z,86.80
2018-09-12T04:54:47.930Z,86.80
2018-09-12T04:57:16.759Z,85.70
2018-09-12T04:59:45.570Z,85.80
2018-09-12T05:02:14.317Z,85.20
2018-09-12T05:04:43.074Z,84.80
2018-09-12T05:07:11.832Z,86.30
2018-09-12T05:09:40.576Z,86.80
2018-09-12T05:12:09.382Z,87.10
2018-09-12T05:14:38.140Z,86.70
2018-09-12T05:17:06.961Z,87.30
2018-09-12T05:19:35.838Z,87.30
2018-09-12T05:22:04.672Z,87.00
2018-09-12T05:24:33.418Z,85.70
2018-09-12T05:27:02.174Z,85.10
2018-09-12T05:29:31.081Z,85.80
2018-09-12T05:31:59.869Z,86.00
2018-09-12T05:34:28.672Z,85.10
2018-09-12T05:36:57.425Z,84.90
2018-09-12T05:39:26.157Z,86.50
2018-09-12T05:41:55.077Z,86.00
2018-09-12T05:44:23.861Z,86.80
2018-09-12T05:46:52.700Z,87.10
2018-09-12T05:49:21.522Z,85.50
2018-09-12T05:51:50.322Z,86.40
2018-09-12T05:54:19.080Z,84.90
2018-09-12T05:56:47.964Z,85.70
2018-09-12T05:59:16.761Z,85.20
2018-09-12T06:01:45.628Z,84.80
2018-09-12T06:04:14.431Z,85.40
2018-09-12T06:06:43.187Z,85.60
2018-09-12T06:09:12.025Z,83.90
2018-09-12T06:11:40.860Z,84.00
2018-09-12T06:14:09.711Z,86.30
2018-09-12T06:16:38.473Z,84.30
2018-09-12T06:19:07.550Z,84.00
2018-09-12T06:21:36.674Z,84.40
2018-09-12T06:24:05.495Z,83.20
2018-09-12T06:26:34.347Z,84.20
2018-09-12T06:29:03.136Z,84.50
2018-09-12T06:31:31.876Z,84.20
2018-09-12T06:34:00.654Z,84.20
2018-09-12T06:36:29.442Z,85.30
2018-09-12T06:38:58.298Z,85.40
2018-09-12T06:41:27.147Z,86.50
2018-09-12T06:43:56.414Z,86.40
2018-09-12T06:46:25.184Z,85.20
2018-09-12T06:48:53.985Z,87.00
2018-09-12T06:51:22.768Z,86.00
2018-09-12T06:53:51.556Z,86.40
2018-09-12T06:56:20.373Z,86.20
2018-09-12T06:58:49.190Z,87.70
2018-09-12T07:01:17.953Z,86.00
2018-09-12T07:03:47.538Z,86.00
2018-09-12T07:06:16.317Z,85.10
2018-09-12T07:08:45.227Z,86.70
2018-09-12T07:11:14.101Z,87.80
2018-09-12T07:13:43.022Z,87.20
2018-09-12T07:16:11.994Z,87.90
2018-09-12T07:18:40.741Z,87.80
2018-09-12T07:21:09.663Z,87.00
2018-09-12T07:23:38.438Z,86.90
2018-09-12T07:26:07.767Z,87.00
2018-09-12T07:28:36.590Z,87.00
2018-09-12T07:31:05.853Z,87.00
2018-09-12T07:33:34.634Z,85.60
2018-09-12T07:36:03.388Z,85.90
2018-09-12T07:38:32.174Z,85.60
2018-09-12T07:41:00.989Z,85.10
2018-09-12T07:43:30.254Z,84.90
2018-09-12T07:45:59.007Z,85.70
2018-09-12T07:48:27.884Z,84.80
2018-09-12T07:50:56.692Z,84.50
2018-09-12T07:53:25.578Z,84.80
2018-09-12T07:55:54.382Z,84.20
2018-09-12T07:58:23.334Z,84.50
2018-09-12T08:00:52.102Z,85.80
2018-09-12T08:03:20.923Z,85.80
2018-09-12T08:05:49.747Z,85.00
2018-09-12T08:08:18.515Z,85.90
2018-09-12T08:10:47.663Z,87.00
2018-09-12T08:13:16.438Z,86.70
2018-09-12T08:15:45.271Z,85.80
2018-09-12T08:18:14.121Z,86.10
2018-09-12T08:20:42.957Z,85.90
2018-09-12T08:23:11.736Z,86.50
2018-09-12T08:25:40.521Z,86.30
2018-09-12T08:28:09.400Z,86.60
2018-09-12T08:30:38.492Z,86.50
2018-09-12T08:33:07.379Z,87.50
2018-09-12T08:35:36.312Z,87.70
2018-09-12T08:38:05.132Z,87.90
2018-09-12T08:40:33.947Z,87.00
2018-09-12T08:43:02.708Z,88.30
2018-09-12T08:45:31.544Z,84.90
2018-09-12T08:48:00.333Z,85.90
2018-09-12T08:50:29.102Z,85.50
2018-09-12T08:52:57.935Z,86.40
2018-09-12T08:55:26.696Z,85.90
2018-09-12T08:57:55.725Z,85.30
2018-09-12T09:00:32.609Z,85.00
2018-09-12T09:03:01.422Z,85.30
2018-09-12T09:05:30.370Z,86.10
2018-09-12T09:07:59.160Z,84.90
2018-09-12T09:10:28.030Z,84.60
2018-09-12T09:12:57.658Z,85.00
2018-09-12T09:15:27.912Z,84.90
2018-09-12T09:17:56.963Z,85.30
2018-09-12T09:20:26.287Z,84.00
2018-09-12T09:22:55.095Z,83.70
2018-09-12T09:25:24.767Z,83.30
2018-09-12T09:27:53.557Z,82.50
2018-09-12T09:30:24.262Z,85.40
2018-09-12T09:32:52.984Z,84.80
2018-09-12T09:35:21.825Z,84.20
2018-09-12T09:37:50.598Z,83.80
2018-09-12T09:40:19.392Z,84.10
2018-09-12T09:42:48.284Z,84.10
2018-09-12T09:45:16.996Z,83.00
2018-09-12T09:47:45.788Z,83.20
2018-09-12T09:50:14.560Z,83.70
2018-09-12T09:52:43.381Z,83.70
2018-09-12T09:55:12.264Z,82.10
2018-09-12T09:57:41.028Z,82.70
2018-09-12T10:00:16.332Z,81.90
2018-09-12T10:02:50.202Z,81.00
2018-09-12T10:05:25.986Z,80.50
2018-09-12T10:08:00.051Z,81.80
2018-09-12T10:10:28.816Z,79.00
2018-09-12T10:12:57.580Z,78.20
2018-09-12T10:15:26.390Z,80.70
2018-09-12T10:17:55.271Z,81.70
2018-09-12T10:20:24.099Z,79.60
2018-09-12T10:22:52.859Z,79.30
2018-09-12T10:25:21.678Z,78.40
2018-09-12T10:27:50.485Z,80.20
2018-09-12T10:30:19.299Z,77.80
2018-09-12T10:32:48.069Z,77.80
2018-09-12T10:35:16.816Z,78.80
2018-09-12T10:37:45.644Z,78.40
2018-09-12T10:40:14.388Z,76.50
2018-09-12T10:42:43.197Z,79.00
2018-09-12T10:45:11.945Z,78.80
2018-09-12T10:47:41.750Z,77.40
2018-09-12T10:50:10.557Z,79.50
2018-09-12T10:52:39.298Z,79.00
2018-09-12T10:55:08.220Z,78.20
2018-09-12T10:57:36.960Z,78.50
2018-09-12T11:00:07.472Z,76.00
2018-09-12T11:02:36.433Z,77.10
2018-09-12T11:05:06.435Z,78.70
2018-09-12T11:07:35.279Z,76.90
2018-09-12T11:10:04.094Z,78.90
2018-09-12T11:12:32.922Z,79.30
2018-09-12T11:15:02.786Z,78.40
2018-09-12T11:17:31.560Z,78.70
2018-09-12T11:20:00.334Z,76.90
2018-09-12T11:22:29.120Z,78.10
2018-09-12T11:24:57.908Z,79.60
2018-09-12T11:27:26.716Z,79.70
2018-09-12T11:29:55.816Z,78.00
2018-09-12T11:32:24.594Z,77.90
2018-09-12T11:34:53.316Z,78.20
2018-09-12T11:37:22.108Z,78.80
2018-09-12T11:39:51.362Z,78.40
2018-09-12T11:42:20.127Z,79.20
2018-09-12T11:44:48.920Z,79.70
2018-09-12T11:47:17.681Z,79.10
2018-09-12T11:49:46.417Z,80.60
2018-09-12T11:52:15.207Z,80.30
2018-09-12T11:54:43.935Z,78.60
2018-09-12T11:57:12.752Z,77.50
2018-09-12T11:59:41.692Z,77.40
2018-09-12T12:02:13.487Z,77.40
2018-09-12T12:04:42.261Z,77.40
2018-09-12T12:07:11.037Z,77.40
2018-09-12T12:09:39.898Z,79.20
2018-09-12T12:12:08.644Z,77.60
2018-09-12T12:14:37.486Z,78.40
2018-09-12T12:17:06.281Z,75.60
2018-09-12T12:19:35.138Z,76.30
2018-09-12T12:22:03.920Z,77.00
2018-09-12T12:24:32.807Z,75.90
2018-09-12T12:27:01.617Z,76.70
2018-09-12T12:29:30.399Z,77.60
2018-09-12T12:31:59.147Z,76.80
2018-09-12T12:34:27.927Z,75.00
2018-09-12T12:36:56.731Z,76.50
2018-09-12T12:39:25.581Z,78.70
2018-09-12T12:41:57.304Z,77.40
2018-09-12T12:44:26.096Z,77.10
2018-09-12T12:46:54.857Z,76.40
2018-09-12T12:49:23.616Z,74.90
2018-09-12T12:51:52.407Z,76.20
2018-09-12T12:54:21.169Z,74.20
2018-09-12T12:56:49.914Z,74.30
2018-09-12T12:59:18.797Z,71.90
2018-09-12T13:01:47.565Z,74.40
2018-09-12T13:04:16.314Z,73.50
2018-09-12T13:06:45.090Z,73.10
2018-09-12T13:09:13.868Z,71.80
2018-09-12T13:11:42.729Z,70.90
2018-09-12T13:14:11.513Z,71.70
2018-09-12T13:16:40.236Z,72.90
2018-09-12T13:19:09.077Z,70.70
2018-09-12T13:21:38.015Z,72.00
2018-09-12T13:24:06.718Z,70.70
2018-09-12T13:26:35.516Z,70.60
2018-09-12T13:29:04.445Z,69.90
2018-09-12T13:31:33.248Z,69.90
2018-09-12T13:34:02.003Z,69.40
2018-09-12T13:36:30.840Z,70.60
2018-09-12T13:38:59.687Z,71.90
2018-09-12T13:41:28.472Z,70.50
2018-09-12T13:43:57.260Z,71.10
2018-09-12T13:46:26.025Z,70.20
2018-09-12T13:48:54.806Z,70.70
2018-09-12T13:51:23.568Z,70.00
2018-09-12T13:53:52.368Z,72.10
2018-09-12T13:56:21.611Z,71.00
2018-09-12T13:58:50.401Z,71.70
2018-09-12T14:01:19.261Z,72.50
2018-09-12T14:03:48.018Z,72.50
2018-09-12T14:06:16.865Z,72.40
2018-09-12T14:08:45.687Z,71.80
2018-09-12T14:11:14.512Z,72.10
2018-09-12T14:13:43.336Z,71.60
2018-09-12T14:16:12.069Z,69.60
2018-09-12T14:18:40.848Z,69.60
2018-09-12T14:21:09.797Z,69.50
2018-09-12T14:23:39.568Z,69.70
2018-09-12T14:26:08.650Z,68.80
2018-09-12T14:28:37.537Z,69.50
2018-09-12T14:31:06.348Z,70.00
2018-09-12T14:33:35.100Z,70.60
2018-09-12T14:36:03.885Z,71.50
2018-09-12T14:38:32.690Z,71.60
2018-09-12T14:41:01.501Z,71.80
2018-09-12T14:43:30.307Z,74.10
2018-09-12T14:45:59.099Z,75.80
2018-09-12T14:48:27.902Z,77.00
2018-09-12T14:50:56.682Z,76.80
2018-09-12T14:53:25.567Z,78.70
2018-09-12T14:55:54.325Z,78.10
2018-09-12T14:58:23.347Z,78.80
2018-09-12T15:00:54.118Z,79.60
2018-09-12T15:03:23.596Z,79.60
2018-09-12T15:05:52.410Z,79.80
2018-09-12T15:08:21.215Z,79.70
2018-09-12T15:10:49.976Z,79.90
2018-09-12T15:13:18.903Z,78.60
2018-09-12T15:15:47.705Z,78.40
2018-09-12T15:18:16.538Z,78.00
2018-09-12T15:20:45.319Z,79.50
2018-09-12T15:23:14.164Z,79.90
2018-09-12T15:25:43.014Z,79.30
2018-09-12T15:28:15.107Z,78.40
2018-09-12T15:30:44.031Z,78.70
2018-09-12T15:33:13.990Z,78.60
2018-09-12T15:35:42.820Z,79.20
2018-09-12T15:38:11.581Z,78.40
2018-09-12T15:40:40.377Z,79.10
2018-09-12T15:43:09.156Z,79.00
2018-09-12T15:45:39.022Z,79.00
2018-09-12T15:48:07.861Z,76.40
2018-09-12T15:50:36.604Z,77.20
2018-09-12T15:53:05.615Z,76.50
2018-09-12T15:55:34.389Z,78.00
2018-09-12T15:58:03.187Z,78.20
2018-09-12T16:00:32.038Z,77.70
2018-09-12T16:03:00.816Z,77.70
2018-09-12T16:05:29.658Z,77.20
2018-09-12T16:07:58.861Z,76.40
2018-09-12T16:10:28.896Z,75.70
2018-09-12T16:12:57.938Z,76.60
2018-09-12T16:15:26.856Z,77.40
2018-09-12T16:17:55.788Z,77.90
2018-09-12T16:20:24.681Z,78.20
2018-09-12T16:22:53.595Z,78.10
2018-09-12T16:25:23.958Z,77.70
2018-09-12T16:27:55.024Z,78.10
2018-09-12T16:30:23.984Z,78.60
2018-09-12T16:32:52.899Z,76.50
2018-09-12T16:35:21.761Z,76.80
2018-09-12T16:37:50.603Z,76.90
2018-09-12T16:40:19.525Z,76.10
2018-09-12T16:42:48.330Z,76.10
2018-09-12T16:45:17.101Z,77.80
2018-09-12T16:47:45.948Z,78.20
2018-09-12T16:50:14.812Z,76.90
2018-09-12T16:52:43.612Z,75.60
2018-09-12T16:55:12.445Z,76.70
2018-09-12T16:57:41.253Z,76.10
2018-09-12T17:00:10.063Z,76.00
2018-09-12T17:02:38.830Z,75.30
2018-09-12T17:05:07.715Z,75.30
2018-09-12T17:07:36.607Z,73.90
2018-09-12T17:10:05.573Z,75.20
2018-09-12T17:12:34.446Z,74.40
2018-09-12T17:15:03.704Z,74.40
2018-09-12T17:17:32.522Z,75.20
2018-09-12T17:20:01.343Z,75.90
2018-09-12T17:22:30.147Z,74.10
2018-09-12T17:24:58.929Z,74.60
2018-09-12T17:27:27.793Z,73.70
2018-09-12T17:29:56.591Z,74.30
2018-09-12T17:32:25.409Z,73.00
2018-09-12T17:34:54.259Z,72.70
2018-09-12T17:37:23.030Z,72.90
2018-09-12T17:39:52.031Z,72.90
2018-09-12T17:42:20.904Z,73.10
2018-09-12T17:44:49.693Z,72.70
2018-09-12T17:47:18.968Z,73.80
2018-09-12T17:49:47.759Z,75.40
2018-09-12T17:52:16.754Z,74.80
2018-09-12T17:54:52.848Z,73.60
2018-09-12T17:57:21.645Z,72.40
2018-09-12T17:59:50.505Z,73.00
2018-09-12T18:02:19.288Z,72.30
2018-09-12T18:04:48.051Z,71.90
2018-09-12T18:07:16.848Z,71.70
2018-09-12T18:09:45.632Z,72.20
2018-09-12T18:12:14.432Z,72.60
2018-09-12T18:14:43.194Z,73.90
2018-09-12T18:17:12.061Z,75.70
2018-09-12T18:19:40.908Z,75.60
2018-09-12T18:22:09.716Z,75.50
2018-09-12T18:24:38.482Z,76.40
2018-09-12T18:27:07.479Z,76.00
2018-09-12T18:29:36.402Z,76.30
2018-09-12T18:32:05.209Z,77.10
2018-09-12T18:34:34.034Z,77.50
2018-09-12T18:37:02.861Z,77.30
2018-09-12T18:39:31.880Z,77.10
2018-09-12T18:42:01.465Z,76.10
2018-09-12T18:44:31.102Z,75.60
2018-09-12T18:47:01.009Z,75.70
2018-09-12T18:49:31.438Z,74.70
2018-09-12T18:52:02.069Z,75.00
2018-09-12T18:54:32.470Z,76.60
2018-09-12T18:57:03.026Z,77.50
2018-09-12T18:59:33.679Z,78.60
2018-09-12T19:02:04.188Z,78.10
2018-09-12T19:04:34.818Z,78.60
2018-09-12T19:07:05.725Z,78.80
2018-09-12T19:09:36.427Z,78.00
2018-09-12T19:12:07.125Z,78.90
2018-09-12T19:14:37.862Z,79.20
2018-09-12T19:17:08.492Z,79.00
2018-09-12T19:19:39.864Z,79.40
2018-09-12T19:22:10.578Z,79.50
2018-09-12T19:24:41.316Z,79.70
2018-09-12T19:27:12.043Z,79.40
2018-09-12T19:29:42.677Z,79.60
2018-09-12T19:32:13.307Z,79.60
2018-09-12T19:34:43.838Z,79.30
2018-09-12T19:37:14.164Z,79.70
2018-09-12T19:39:44.899Z,79.40
2018-09-12T19:42:17.678Z,80.40
2018-09-12T19:44:55.657Z,80.00
2018-09-12T19:47:25.056Z,80.20
2018-09-12T19:49:53.932Z,79.50
2018-09-12T19:52:22.896Z,79.30
2018-09-12T19:54:51.779Z,79.80
2018-09-12T19:57:20.553Z,79.80
2018-09-12T19:59:49.366Z,79.50
2018-09-12T20:02:28.392Z,80.00
2018-09-12T20:04:57.856Z,79.90
2018-09-12T20:07:26.881Z,79.40
2018-09-12T20:09:55.696Z,79.40
2018-09-12T20:12:24.507Z,79.00
2018-09-12T20:14:53.631Z,78.70
2018-09-12T20:17:22.449Z,79.50
2018-09-12T20:19:51.569Z,79.50
2018-09-12T20:22:20.743Z,79.30
2018-09-12T20:24:49.520Z,79.70
2018-09-12T20:27:18.465Z,79.30
2018-09-12T20:29:47.637Z,79.30
2018-09-12T20:32:16.725Z,78.10
2018-09-12T20:34:45.572Z,78.70
2018-09-12T20:37:14.914Z,79.20
2018-09-12T20:39:44.806Z,79.50
2018-09-12T20:42:13.612Z,80.10
2018-09-12T20:44:42.361Z,79.70
2018-09-12T20:47:11.322Z,80.30
2018-09-12T20:49:40.160Z,80.60
2018-09-12T20:52:09.401Z,80.30
2018-09-12T20:54:38.351Z,80.40
2018-09-12T20:57:07.191Z,79.50
2018-09-12T20:59:36.093Z,80.60
2018-09-12T21:02:04.924Z,80.60
2018-09-12T21:04:33.690Z,80.90
2018-09-12T21:07:02.802Z,80.60
2018-09-12T21:09:31.641Z,80.30
2018-09-12T21:12:00.464Z,81.00
2018-09-12T21:14:29.216Z,81.40
2018-09-12T21:16:57.974Z,81.20
2018-09-12T21:19:26.776Z,81.40
2018-09-12T21:21:55.573Z,81.70
2018-09-12T21:24:24.388Z,81.60
2018-09-12T21:26:53.213Z,81.70
2018-09-12T21:29:21.997Z,81.60
2018-09-12T21:31:50.801Z,81.70
2018-09-12T21:34:19.580Z,81.60
2018-09-12T21:36:48.430Z,80.80
2018-09-12T21:39:17.196Z,80.60
2018-09-12T21:41:45.989Z,81.00
2018-09-12T21:44:14.768Z,81.20
2018-09-12T21:46:43.647Z,81.20
2018-09-12T21:49:12.388Z,81.10
2018-09-12T21:51:41.169Z,81.20
2018-09-12T21:54:10.028Z,82.30
2018-09-12T21:56:38.817Z,82.60
2018-09-12T21:59:07.667Z,82.00
2018-09-12T22:01:36.400Z,82.00
2018-09-12T22:04:05.153Z,81.40
2018-09-12T22:06:33.929Z,81.80
2018-09-12T22:09:02.725Z,82.00
2018-09-12T22:11:31.479Z,81.60
2018-09-12T22:14:00.264Z,82.20
2018-09-12T22:16:29.091Z,81.60
2018-09-12T22:18:57.964Z,82.00
2018-09-12T22:21:26.757Z,81.70
2018-09-12T22:23:55.609Z,82.50
2018-09-12T22:26:24.537Z,82.20
2018-09-12T22:28:53.421Z,82.40
2018-09-12T22:31:22.263Z,82.40
2018-09-12T22:33:51.169Z,83.40
2018-09-12T22:36:20.081Z,83.00
2018-09-12T22:38:48.974Z,82.40
2018-09-12T22:41:17.809Z,82.40
2018-09-12T22:43:46.594Z,82.00
2018-09-12T22:46:15.560Z,81.40
2018-09-12T22:48:44.369Z,80.70
2018-09-12T22:51:13.149Z,80.50
2018-09-12T22:53:41.969Z,80.90
2018-09-12T22:56:10.728Z,81.90
2018-09-12T22:58:39.574Z,82.00
2018-09-12T23:01:08.382Z,81.70
2018-09-12T23:03:37.178Z,81.70
2018-09-12T23:06:05.960Z,82.40
2018-09-12T23:08:34.914Z,82.00
2018-09-12T23:11:03.799Z,81.70
2018-09-12T23:13:32.731Z,82.20
2018-09-12T23:16:01.570Z,82.30
2018-09-12T23:18:30.384Z,82.20
2018-09-12T23:20:59.204Z,81.90
2018-09-12T23:23:28.020Z,82.20
2018-09-12T23:25:56.973Z,82.20
2018-09-12T23:28:25.829Z,82.20
2018-09-12T23:30:54.653Z,82.10
2018-09-12T23:33:23.428Z,82.10
2018-09-12T23:35:52.264Z,82.10
2018-09-12T23:38:21.079Z,82.00
2018-09-12T23:40:49.876Z,82.40
2018-09-12T23:43:18.650Z,82.30
2018-09-12T23:45:47.542Z,83.00
2018-09-12T23:48:16.384Z,83.10
2018-09-12T23:50:45.406Z,83.20
2018-09-12T23:53:14.200Z,83.00
2018-09-12T23:55:43.018Z,83.10
2018-09-12T23:58:11.818Z,83.20
